Time;durP1;ratioP1;P1;durP2;ratioP2;P2;SDS_P1;SDS_P2;PMS_P1;PMS_P2;Temp;Humidity;BMP_temperature;BMP_pressure;BME280_temperature;BME280_humidity;BME280_pressure;Samples;Min_cycle;Max_cycle;Signal;HPM_P1;HPM_P2
2023/01/05 00:02:25;;;;;;;0.90;0.90;;;;;;;-142.25;100.00;58004.16;5038745;28;20041;-70
2023/01/05 00:04:51;;;;;;;0.80;0.80;;;;;;;-142.25;100.00;58004.16;5036202;28;20049;-71
2023/01/05 00:07:16;;;;;;;0.90;0.90;;;;;;;-142.25;100.00;58004.16;5038024;28;20052;-70
2023/01/05 00:09:42;;;;;;;0.68;0.68;;;;;;;-142.25;100.00;58004.16;5036523;28;20617;-71
2023/01/05 00:23:08;;;;;;;0.80;0.80;;;;;;;-142.25;100.00;58004.16;5036971;28;20041;-70
2023/01/05 00:25:39;;;;;;;0.80;0.80;;;;;;;-142.25;100.00;58004.16;5036259;28;20135;-68
2023/01/05 00:28:06;;;;;;;0.80;0.80;;;;;;;-142.25;100.00;58004.16;5039512;28;20040;-70
2023/01/05 00:30:37;;;;;;;0.80;0.80;;;;;;;-142.25;100.00;58004.16;5037180;28;20440;-69
2023/01/05 00:33:13;;;;;;;0.63;0.63;;;;;;;-142.25;100.00;58004.16;5037729;28;20529;-70
2023/01/05 00:35:39;;;;;;;0.85;0.85;;;;;;;-142.25;100.00;58004.16;5038147;28;20051;-70
2023/01/05 00:38:06;;;;;;;0.75;0.75;;;;;;;-142.25;100.00;58004.16;5038600;28;20029;-70
2023/01/05 00:40:34;;;;;;;0.90;0.90;;;;;;;-142.25;100.00;58004.16;5036820;28;20049;-69
2023/01/05 00:43:00;;;;;;;0.80;0.80;;;;;;;-142.25;100.00;58004.16;5035502;28;20558;-70
2023/01/05 00:45:25;;;;;;;1.23;0.98;;;;;;;-142.25;100.00;58004.16;5042536;28;20048;-70
2023/01/05 00:47:52;;;;;;;0.80;0.80;;;;;;;-142.25;100.00;58004.16;5035709;28;20816;-69
2023/01/05 00:50:21;;;;;;;0.73;0.73;;;;;;;-142.25;100.00;58004.16;5037601;28;20055;-71
2023/01/05 00:52:46;;;;;;;0.80;0.80;;;;;;;-142.25;100.00;58004.16;5033412;28;20069;-71
2023/01/05 00:55:13;;;;;;;0.70;0.70;;;;;;;-142.25;100.00;58004.16;5035926;28;20175;-71
2023/01/05 00:57:38;;;;;;;0.98;0.98;;;;;;;-142.25;100.00;58004.16;5038502;28;20499;-71
2023/01/05 01:00:09;;;;;;;1.00;1.00;;;;;;;-142.25;100.00;58004.16;5037564;28;20048;-71
2023/01/05 01:02:35;;;;;;;0.77;0.68;;;;;;;-142.25;100.00;58004.16;5048087;28;20045;-71
2023/01/05 01:05:01;;;;;;;0.85;0.85;;;;;;;-142.25;100.00;58004.16;5040059;28;20056;-71
2023/01/05 01:07:28;;;;;;;0.65;0.65;;;;;;;-142.25;100.00;58004.16;5034289;28;20041;-71
2023/01/05 01:09:54;;;;;;;0.70;0.70;;;;;;;-142.25;100.00;58004.16;5036482;28;20041;-70
2023/01/05 01:12:19;;;;;;;0.90;0.90;;;;;;;-142.25;100.00;58004.16;5033421;28;20057;-70
2023/01/05 01:14:47;;;;;;;0.70;0.70;;;;;;;-142.25;100.00;58004.16;5037394;28;20083;-71
2023/01/05 01:17:15;;;;;;;0.80;0.80;;;;;;;-142.25;100.00;58004.16;5038142;28;20083;-71
2023/01/05 01:19:41;;;;;;;0.70;0.70;;;;;;;-142.25;100.00;58004.16;5035899;28;20095;-71
2023/01/05 01:22:08;;;;;;;0.80;0.80;;;;;;;-142.25;100.00;58004.16;5033646;28;20172;-71
2023/01/05 01:24:34;;;;;;;0.80;0.80;;;;;;;-142.25;100.00;58004.16;5037632;28;20055;-70
2023/01/05 01:26:59;;;;;;;0.80;0.80;;;;;;;-142.25;100.00;58004.16;5036580;28;20133;-71
2023/01/05 01:29:25;;;;;;;0.60;0.60;;;;;;;-142.25;100.00;58004.16;5035051;28;20067;-71
2023/01/05 01:31:52;;;;;;;0.70;0.70;;;;;;;-142.25;100.00;58004.16;5035428;28;20052;-70
2023/01/05 01:34:18;;;;;;;0.75;0.75;;;;;;;-142.25;100.00;58004.16;5037762;28;20064;-70
2023/01/05 01:36:45;;;;;;;0.70;0.70;;;;;;;-142.25;100.00;58004.16;5036667;28;20132;-71
2023/01/05 01:39:12;;;;;;;0.60;0.60;;;;;;;-142.25;100.00;58004.16;5032338;28;20616;-71
2023/01/05 01:41:41;;;;;;;0.80;0.80;;;;;;;-142.25;100.00;58004.16;5036565;28;20518;-70
2023/01/05 01:44:44;;;;;;;1.30;1.30;;;;;;;-142.25;100.00;58004.16;5028119;28;20041;-71
2023/01/05 01:47:15;;;;;;;3.88;1.60;;;;;;;-142.25;100.00;58004.16;5035711;28;20831;-71
2023/01/05 01:49:42;;;;;;;2.60;1.48;;;;;;;-142.25;100.00;58004.16;5042134;28;20045;-70
2023/01/05 01:52:08;;;;;;;2.25;1.33;;;;;;;-142.25;100.00;58004.16;5034911;28;20044;-71
2023/01/05 01:54:34;;;;;;;2.00;1.45;;;;;;;-142.25;100.00;58004.16;5032799;28;20675;-71
2023/01/05 01:57:00;;;;;;;3.22;1.38;;;;;;;-142.25;100.00;58004.16;5036618;28;20148;-71
2023/01/05 01:59:27;;;;;;;1.08;0.98;;;;;;;-142.25;100.00;58004.16;5027286;28;20045;-71
2023/01/05 02:01:56;;;;;;;2.45;1.20;;;;;;;-142.25;100.00;58004.16;5034417;28;20049;-71
2023/01/05 02:04:24;;;;;;;1.77;0.90;;;;;;;-142.25;100.00;58004.16;5033084;28;20120;-71
2023/01/05 02:06:51;;;;;;;0.60;0.60;;;;;;;-142.25;100.00;58004.16;5035194;28;20407;-71
2023/01/05 02:09:17;;;;;;;0.70;0.70;;;;;;;-142.25;100.00;58004.16;5033902;28;20043;-71
2023/01/05 02:11:57;;;;;;;0.70;0.70;;;;;;;-142.25;100.00;58004.16;5035615;28;20057;-71
2023/01/05 02:14:35;;;;;;;0.90;0.90;;;;;;;-142.25;100.00;58004.16;5034993;28;20065;-71
2023/01/05 02:17:11;;;;;;;0.85;0.80;;;;;;;-142.25;100.00;58004.16;5031875;28;20372;-70
2023/01/05 02:19:56;;;;;;;0.68;0.68;;;;;;;-142.25;100.00;58004.16;5032490;28;20067;-71
2023/01/05 02:23:00;;;;;;;0.90;0.90;;;;;;;-142.25;100.00;58004.16;5036119;28;20070;-71
2023/01/05 02:26:05;;;;;;;0.98;0.98;;;;;;;-142.25;100.00;58004.16;5051856;28;20060;-71
2023/01/05 02:28:45;;;;;;;0.90;0.90;;;;;;;-142.25;100.00;58004.16;5032776;28;20037;-71
2023/01/05 02:31:34;;;;;;;0.73;0.73;;;;;;;-142.25;100.00;58004.16;5034749;28;20083;-71
2023/01/05 02:34:22;;;;;;;0.80;0.80;;;;;;;-142.25;100.00;58004.16;5044943;28;20839;-71
2023/01/05 02:36:52;;;;;;;0.90;0.90;;;;;;;-142.25;100.00;58004.16;5039635;28;20052;-71
2023/01/05 02:39:58;;;;;;;0.60;0.60;;;;;;;-142.25;100.00;58004.16;5029950;28;20143;-71
2023/01/05 02:42:27;;;;;;;0.70;0.70;;;;;;;-142.25;100.00;58004.16;5017257;28;20616;-70
2023/01/05 02:44:52;;;;;;;0.60;0.60;;;;;;;-142.25;100.00;58004.16;5033382;28;20037;-70
2023/01/05 02:47:26;;;;;;;0.70;0.70;;;;;;;-142.25;100.00;58004.16;5050547;28;20098;-70
2023/01/05 02:50:01;;;;;;;0.60;0.60;;;;;;;-142.25;100.00;58004.16;5031308;28;20032;-70
2023/01/05 02:52:39;;;;;;;0.50;0.50;;;;;;;-142.25;100.00;58004.16;5025785;28;20053;-72
2023/01/05 02:55:11;;;;;;;0.60;0.60;;;;;;;-142.25;100.00;58004.16;5028867;28;20068;-72
2023/01/05 02:57:45;;;;;;;0.70;0.70;;;;;;;-142.25;100.00;58004.16;5031753;28;20041;-72
2023/01/05 03:00:27;;;;;;;0.73;0.73;;;;;;;-142.25;100.00;58004.16;5035270;28;20580;-71
2023/01/05 03:03:05;;;;;;;0.63;0.63;;;;;;;-142.25;100.00;58004.16;5036697;28;20060;-73
2023/01/05 03:05:58;;;;;;;0.70;0.70;;;;;;;-142.25;100.00;58004.16;5011006;28;20519;-72
2023/01/05 03:08:30;;;;;;;0.80;0.80;;;;;;;-142.25;100.00;58004.16;5032374;28;20084;-72
2023/01/05 03:14:12;;;;;;;0.85;0.85;;;;;;;-142.25;100.00;58004.16;5034473;28;20057;-71
2023/01/05 03:16:38;;;;;;;2.95;2.10;;;;;;;-142.25;100.00;58004.16;5032224;28;20052;-71
2023/01/05 03:36:08;;;;;;;1.00;1.00;;;;;;;-142.25;100.00;58004.16;5033832;28;20064;-65
2023/01/05 03:38:42;;;;;;;0.70;0.70;;;;;;;-142.25;100.00;58004.16;5034708;28;20021;-65
2023/01/05 03:41:11;;;;;;;0.90;0.90;;;;;;;-142.25;100.00;58004.16;5034132;28;20041;-63
2023/01/05 03:43:40;;;;;;;0.80;0.80;;;;;;;-142.25;100.00;58004.16;5033881;28;20037;-64
2023/01/05 03:46:16;;;;;;;0.70;0.70;;;;;;;-142.25;100.00;58004.16;5035809;28;20113;-64
2023/01/05 03:48:43;;;;;;;0.50;0.50;;;;;;;-142.25;100.00;58004.16;5036581;28;20044;-64
2023/01/05 03:51:09;;;;;;;2.20;0.70;;;;;;;-142.25;100.00;58004.16;5036911;28;20050;-65
2023/01/05 03:53:37;;;;;;;0.80;0.80;;;;;;;-142.25;100.00;58004.16;5043997;28;20048;-64
2023/01/05 03:56:03;;;;;;;0.73;0.73;;;;;;;-142.25;100.00;58004.16;5017482;28;20047;-65
2023/01/05 03:58:29;;;;;;;0.85;0.85;;;;;;;-142.25;100.00;58004.16;5036637;28;20044;-64
2023/01/05 04:00:55;;;;;;;0.88;0.80;;;;;;;-142.25;100.00;58004.16;5035197;28;20503;-64
2023/01/05 04:03:22;;;;;;;0.70;0.70;;;;;;;-142.25;100.00;58004.16;5043303;28;20048;-65
2023/01/05 04:05:49;;;;;;;0.90;0.90;;;;;;;-142.25;100.00;58004.16;5031092;28;20045;-64
2023/01/05 04:08:15;;;;;;;1.00;0.80;;;;;;;-142.25;100.00;58004.16;5025775;28;20052;-65
2023/01/05 04:10:41;;;;;;;0.82;0.82;;;;;;;-142.25;100.00;58004.16;5036529;28;20032;-66
2023/01/05 04:13:08;;;;;;;0.80;0.80;;;;;;;-142.25;100.00;58004.16;5037188;28;20564;-64
2023/01/05 04:15:34;;;;;;;0.80;0.80;;;;;;;-142.25;100.00;58004.16;5036169;28;20092;-65
2023/01/05 04:18:01;;;;;;;0.88;0.88;;;;;;;-142.25;100.00;58004.16;5020763;28;20143;-65
2023/01/05 04:20:27;;;;;;;0.90;0.90;;;;;;;-142.25;100.00;58004.16;5034655;28;20076;-65
2023/01/05 04:22:53;;;;;;;0.95;0.80;;;;;;;-142.25;100.00;58004.16;5034799;28;20029;-65
2023/01/05 04:25:20;;;;;;;1.10;1.10;;;;;;;-142.25;100.00;58004.16;5043655;28;20056;-64
2023/01/05 04:27:46;;;;;;;0.82;0.82;;;;;;;-142.25;100.00;58004.16;5039858;28;20046;-66
2023/01/05 04:30:14;;;;;;;1.02;0.65;;;;;;;-142.25;100.00;58004.16;5031451;28;20167;-64
2023/01/05 04:32:40;;;;;;;0.98;0.95;;;;;;;-142.25;100.00;58004.16;5042148;28;20575;-66
2023/01/05 04:35:09;;;;;;;1.52;0.90;;;;;;;-142.25;100.00;58004.16;5044176;28;20053;-65
2023/01/05 04:37:36;;;;;;;0.80;0.80;;;;;;;-142.25;100.00;58004.16;5032692;28;20049;-65
2023/01/05 04:40:03;;;;;;;0.90;0.90;;;;;;;-142.25;100.00;58004.16;5036024;28;20514;-65
2023/01/05 04:42:32;;;;;;;1.05;0.80;;;;;;;-142.25;100.00;58004.16;5044221;28;20045;-65
2023/01/05 04:44:58;;;;;;;1.10;1.10;;;;;;;-142.25;100.00;58004.16;5037047;28;20040;-65
2023/01/05 04:47:24;;;;;;;0.90;0.82;;;;;;;-142.25;100.00;58004.16;5043092;28;20540;-63
2023/01/05 04:49:50;;;;;;;0.80;0.80;;;;;;;-142.25;100.00;58004.16;5038849;28;20048;-65
2023/01/05 04:52:16;;;;;;;1.23;1.00;;;;;;;-142.25;100.00;58004.16;5039060;28;20044;-64
2023/01/05 04:54:43;;;;;;;0.82;0.82;;;;;;;-142.25;100.00;58004.16;5032190;28;20143;-65
2023/01/05 04:57:09;;;;;;;0.70;0.70;;;;;;;-142.25;100.00;58004.16;5037790;28;20550;-65
2023/01/05 04:59:34;;;;;;;1.48;0.93;;;;;;;-142.25;100.00;58004.16;5037551;28;20522;-65
2023/01/05 05:02:02;;;;;;;3.60;1.58;;;;;;;-142.25;100.00;58004.16;5039223;28;20045;-66
2023/01/05 05:04:29;;;;;;;0.90;0.90;;;;;;;-142.25;100.00;58004.16;5036485;28;20053;-65
2023/01/05 05:06:56;;;;;;;1.20;1.10;;;;;;;-142.25;100.00;58004.16;5044198;28;20041;-65
2023/01/05 05:09:26;;;;;;;0.98;0.98;;;;;;;-142.25;100.00;58004.16;5053492;28;20075;-64
2023/01/05 05:11:52;;;;;;;2.53;2.33;;;;;;;-142.25;100.00;58004.16;5026095;28;20037;-65
2023/01/05 05:14:21;;;;;;;2.25;1.50;;;;;;;-142.25;100.00;58004.16;5035071;28;20059;-64
2023/01/05 05:16:46;;;;;;;1.00;1.00;;;;;;;-142.25;100.00;58004.16;5034753;28;20061;-65
2023/01/05 05:19:12;;;;;;;0.85;0.85;;;;;;;-142.25;100.00;58004.16;5037936;28;20045;-63
2023/01/05 05:21:38;;;;;;;0.70;0.70;;;;;;;-142.25;100.00;58004.16;5034547;28;20045;-64
2023/01/05 05:24:04;;;;;;;1.13;1.13;;;;;;;-142.25;100.00;58004.16;5014466;28;20512;-64
2023/01/05 05:26:35;;;;;;;0.77;0.77;;;;;;;-142.25;100.00;58004.16;5034374;28;20479;-64
2023/01/05 05:29:01;;;;;;;1.75;0.90;;;;;;;-142.25;100.00;58004.16;5033437;28;20045;-64
2023/01/05 05:31:26;;;;;;;2.70;1.00;;;;;;;-142.25;100.00;58004.16;5036236;28;20045;-64
2023/01/05 05:33:53;;;;;;;0.63;0.63;;;;;;;-142.25;100.00;58004.16;5037086;28;20049;-64
2023/01/05 05:36:19;;;;;;;0.80;0.80;;;;;;;-142.25;100.00;58004.16;5034054;28;20052;-63
2023/01/05 05:38:44;;;;;;;0.90;0.90;;;;;;;-142.25;100.00;58004.16;5033742;28;20479;-64
2023/01/05 05:41:10;;;;;;;0.80;0.80;;;;;;;-142.25;100.00;58004.16;5037477;28;20047;-63
2023/01/05 05:43:36;;;;;;;1.02;1.00;;;;;;;-142.25;100.00;58004.16;5034848;28;20040;-64
2023/01/05 05:46:02;;;;;;;1.25;1.10;;;;;;;-142.25;100.00;58004.16;5035114;28;20411;-64
2023/01/05 05:48:27;;;;;;;1.42;1.33;;;;;;;-142.25;100.00;58004.16;5031279;28;20049;-65
2023/01/05 05:50:53;;;;;;;1.58;1.42;;;;;;;-142.25;100.00;58004.16;5037652;28;20202;-64
2023/01/05 05:53:18;;;;;;;1.00;1.00;;;;;;;-142.25;100.00;58004.16;5034302;28;20559;-65
2023/01/05 05:55:50;;;;;;;0.75;0.75;;;;;;;-142.25;100.00;58004.16;5036033;28;20037;-64
2023/01/05 05:58:17;;;;;;;0.80;0.80;;;;;;;-142.25;100.00;58004.16;5034983;28;20375;-65
2023/01/05 06:00:43;;;;;;;0.85;0.85;;;;;;;-142.25;100.00;58004.16;5032754;28;20064;-65
2023/01/05 06:03:09;;;;;;;1.40;1.15;;;;;;;-142.25;100.00;58004.16;5032507;28;20937;-65
2023/01/05 06:05:34;;;;;;;0.75;0.75;;;;;;;-142.25;100.00;58004.16;5035647;28;20041;-65
2023/01/05 06:08:00;;;;;;;0.75;0.75;;;;;;;-142.25;100.00;58004.16;5031006;28;20669;-64
2023/01/05 06:10:27;;;;;;;0.90;0.90;;;;;;;-142.25;100.00;58004.16;5030067;28;20810;-64
2023/01/05 06:12:53;;;;;;;0.80;0.80;;;;;;;-142.25;100.00;58004.16;5034778;28;20068;-64
2023/01/05 06:15:19;;;;;;;0.70;0.70;;;;;;;-142.25;100.00;58004.16;5034832;28;20087;-66
2023/01/05 06:17:47;;;;;;;0.80;0.80;;;;;;;-142.25;100.00;58004.16;5034887;28;20080;-66
2023/01/05 06:20:15;;;;;;;0.82;0.82;;;;;;;-142.25;100.00;58004.16;5034961;28;20128;-65
2023/01/05 06:22:42;;;;;;;0.80;0.80;;;;;;;-142.25;100.00;58004.16;5033370;28;20041;-64
2023/01/05 06:25:08;;;;;;;0.80;0.80;;;;;;;-142.25;100.00;58004.16;5032855;28;20104;-65
2023/01/05 06:27:34;;;;;;;0.70;0.70;;;;;;;-142.25;100.00;58004.16;5035604;28;20556;-63
2023/01/05 06:30:00;;;;;;;0.60;0.60;;;;;;;-142.25;100.00;58004.16;5032008;28;20090;-64
2023/01/05 06:32:25;;;;;;;0.80;0.80;;;;;;;-142.25;100.00;58004.16;5035570;28;20037;-65
2023/01/05 06:34:51;;;;;;;0.80;0.80;;;;;;;-142.25;100.00;58004.16;5035359;28;20052;-64
2023/01/05 06:37:17;;;;;;;0.60;0.60;;;;;;;-142.25;100.00;58004.16;5036329;28;20523;-64
2023/01/05 06:39:43;;;;;;;0.90;0.90;;;;;;;-142.25;100.00;58004.16;5034844;28;20025;-64
2023/01/05 06:42:09;;;;;;;0.70;0.70;;;;;;;-142.25;100.00;58004.16;5034190;28;20502;-64
2023/01/05 06:44:35;;;;;;;0.60;0.60;;;;;;;-142.25;100.00;58004.16;5032736;28;20506;-65
2023/01/05 06:47:01;;;;;;;2.58;0.90;;;;;;;-142.25;100.00;58004.16;5039611;28;20048;-64
2023/01/05 06:49:26;;;;;;;0.70;0.70;;;;;;;-142.25;100.00;58004.16;5040038;28;20063;-64
2023/01/05 06:51:52;;;;;;;0.77;0.77;;;;;;;-142.25;100.00;58004.16;5037756;28;20136;-65
2023/01/05 06:54:17;;;;;;;0.80;0.80;;;;;;;-142.25;100.00;58004.16;5038087;28;20575;-65
2023/01/05 06:56:43;;;;;;;0.70;0.70;;;;;;;-142.25;100.00;58004.16;5036961;28;20598;-66
2023/01/05 06:59:11;;;;;;;0.63;0.63;;;;;;;-142.25;100.00;58004.16;5037545;28;20459;-64
2023/01/05 07:01:37;;;;;;;0.70;0.70;;;;;;;-142.25;100.00;58004.16;5035614;28;20071;-65
2023/01/05 07:04:03;;;;;;;0.80;0.80;;;;;;;-142.25;100.00;58004.16;5038023;28;20501;-65
2023/01/05 07:06:29;;;;;;;0.70;0.70;;;;;;;-142.25;100.00;58004.16;5037751;28;20045;-65
2023/01/05 07:08:55;;;;;;;0.90;0.80;;;;;;;-142.25;100.00;58004.16;5037427;28;20041;-66
2023/01/05 07:11:21;;;;;;;0.77;0.77;;;;;;;-142.25;100.00;58004.16;5038137;28;20119;-66
2023/01/05 07:13:50;;;;;;;1.10;0.60;;;;;;;-142.25;100.00;58004.16;5038654;28;20093;-64
2023/01/05 07:16:17;;;;;;;0.75;0.75;;;;;;;-142.25;100.00;58004.16;5040965;28;20095;-64
2023/01/05 07:18:42;;;;;;;0.63;0.63;;;;;;;-142.25;100.00;58004.16;5041344;28;20053;-65
2023/01/05 07:21:08;;;;;;;0.63;0.63;;;;;;;-142.25;100.00;58004.16;5034010;28;20452;-65
2023/01/05 07:23:36;;;;;;;0.77;0.77;;;;;;;-142.25;100.00;58004.16;5040683;28;20518;-66
2023/01/05 07:26:06;;;;;;;0.93;0.90;;;;;;;-142.25;100.00;58004.16;5036114;28;20037;-64
2023/01/05 07:28:33;;;;;;;1.27;1.23;;;;;;;-142.25;100.00;58004.16;5038686;28;20041;-66
2023/01/05 07:30:59;;;;;;;0.73;0.73;;;;;;;-142.25;100.00;58004.16;5037626;28;20095;-64
2023/01/05 07:33:25;;;;;;;0.60;0.60;;;;;;;-142.25;100.00;58004.16;5036905;28;20036;-64
2023/01/05 07:35:51;;;;;;;0.70;0.70;;;;;;;-142.25;100.00;58004.16;5037009;28;20041;-65
2023/01/05 07:38:16;;;;;;;1.00;0.73;;;;;;;-142.25;100.00;58004.16;5036780;28;20041;-64
2023/01/05 07:40:42;;;;;;;0.80;0.80;;;;;;;-142.25;100.00;58004.16;5033493;28;20084;-65
2023/01/05 07:43:08;;;;;;;0.70;0.70;;;;;;;-142.25;100.00;58004.16;5038681;28;20155;-65
2023/01/05 07:45:33;;;;;;;0.70;0.70;;;;;;;-142.25;100.00;58004.16;5037952;28;20124;-64
2023/01/05 07:47:59;;;;;;;0.80;0.80;;;;;;;-142.25;100.00;58004.16;5037845;28;20387;-64
2023/01/05 07:50:25;;;;;;;0.60;0.60;;;;;;;-142.25;100.00;58004.16;5040433;28;20034;-64
2023/01/05 07:52:51;;;;;;;0.60;0.60;;;;;;;-142.25;100.00;58004.16;5038616;28;20041;-64
2023/01/05 07:55:16;;;;;;;0.70;0.70;;;;;;;-142.25;100.00;58004.16;5036374;28;20045;-64
2023/01/05 07:57:42;;;;;;;0.80;0.80;;;;;;;-142.25;100.00;58004.16;5036182;28;20045;-64
2023/01/05 08:00:12;;;;;;;0.80;0.80;;;;;;;-142.25;100.00;58004.16;5037322;28;20538;-64
2023/01/05 08:02:38;;;;;;;0.85;0.85;;;;;;;-142.25;100.00;58004.16;5036138;28;20041;-64
2023/01/05 08:05:04;;;;;;;0.70;0.70;;;;;;;-142.25;100.00;58004.16;5033586;28;20097;-64
2023/01/05 08:07:30;;;;;;;0.75;0.75;;;;;;;-142.25;100.00;58004.16;5030824;28;20323;-64
2023/01/05 08:13:58;;;;;;;0.85;0.85;;;;;;;-142.25;100.00;58004.16;5036215;28;20049;-64
2023/01/05 08:15:25;;;;;;;1.48;0.80;;;;;;;-142.25;100.00;58004.16;5036684;28;20049;-65
2023/01/05 08:17:50;;;;;;;0.90;0.90;;;;;;;-142.25;100.00;58004.16;5036496;28;20095;-63
2023/01/05 08:20:16;;;;;;;0.63;0.63;;;;;;;-142.25;100.00;58004.16;5038888;28;20300;-64
2023/01/05 08:22:41;;;;;;;0.80;0.80;;;;;;;-142.25;100.00;58004.16;5038813;28;20028;-66
2023/01/05 08:25:07;;;;;;;1.05;1.05;;;;;;;-142.25;100.00;58004.16;5036486;28;20068;-64
2023/01/05 08:27:33;;;;;;;0.57;0.57;;;;;;;-142.25;100.00;58004.16;5037587;28;20045;-64
2023/01/05 08:29:59;;;;;;;0.80;0.73;;;;;;;-142.25;100.00;58004.16;5033529;28;20068;-64
2023/01/05 08:32:25;;;;;;;0.80;0.80;;;;;;;-142.25;100.00;58004.16;5033755;28;20120;-64
2023/01/05 08:34:50;;;;;;;0.90;0.90;;;;;;;-142.25;100.00;58004.16;5038177;28;20050;-64
2023/01/05 08:37:16;;;;;;;1.15;1.15;;;;;;;-142.25;100.00;58004.16;5036520;28;20037;-65
2023/01/05 08:39:41;;;;;;;0.70;0.70;;;;;;;-142.25;100.00;58004.16;5039224;28;20462;-64
2023/01/05 08:42:07;;;;;;;0.80;0.80;;;;;;;-142.25;100.00;58004.16;5038256;28;20076;-65
2023/01/05 08:44:33;;;;;;;0.75;0.75;;;;;;;-142.25;100.00;58004.16;5036945;28;20059;-63
2023/01/05 08:46:58;;;;;;;0.80;0.80;;;;;;;-142.25;100.00;58004.16;5035610;28;20051;-65
2023/01/05 08:49:24;;;;;;;0.93;0.93;;;;;;;-142.25;100.00;58004.16;5035856;28;20176;-64
2023/01/05 08:51:49;;;;;;;0.70;0.70;;;;;;;-142.25;100.00;58004.16;5035037;28;20093;-67
2023/01/05 08:54:15;;;;;;;0.80;0.80;;;;;;;-142.25;100.00;58004.16;5034101;28;20044;-65
2023/01/05 08:56:42;;;;;;;1.33;1.10;;;;;;;-142.25;100.00;58004.16;5033573;28;20048;-65
2023/01/05 08:59:12;;;;;;;0.90;0.90;;;;;;;-142.25;100.00;58004.16;5035723;28;20051;-63
2023/01/05 09:01:38;;;;;;;0.93;0.93;;;;;;;-142.25;100.00;58004.16;5035004;28;20044;-64
2023/01/05 09:04:04;;;;;;;0.95;0.95;;;;;;;-142.25;100.00;58004.16;5033639;28;20919;-66
2023/01/05 09:06:30;;;;;;;0.80;0.80;;;;;;;-142.25;100.00;58004.16;5035035;28;20160;-64
2023/01/05 09:08:55;;;;;;;0.77;0.77;;;;;;;-142.25;100.00;58004.16;5034455;28;20486;-66
2023/01/05 09:11:24;;;;;;;0.90;0.90;;;;;;;-142.25;100.00;58004.16;5033774;28;20044;-69
2023/01/05 09:13:56;;;;;;;0.93;0.93;;;;;;;-142.25;100.00;58004.16;5034219;28;20052;-69
2023/01/05 09:16:25;;;;;;;0.85;0.85;;;;;;;-142.25;100.00;58004.16;5033865;28;20057;-68
2023/01/05 09:18:51;;;;;;;1.00;1.00;;;;;;;-142.25;100.00;58004.16;5036068;28;20034;-67
2023/01/05 09:21:17;;;;;;;1.00;1.00;;;;;;;-142.25;100.00;58004.16;5034418;28;20063;-68
2023/01/05 09:23:43;;;;;;;0.80;0.80;;;;;;;-142.25;100.00;58004.16;5034999;28;20410;-67
2023/01/05 09:26:11;;;;;;;0.80;0.80;;;;;;;-142.25;100.00;58004.16;5034376;28;20044;-67
2023/01/05 09:28:38;;;;;;;0.93;0.80;;;;;;;-142.25;100.00;58004.16;5035682;28;20067;-69
2023/01/05 09:31:09;;;;;;;1.08;1.08;;;;;;;-142.25;100.00;58004.16;5033599;28;20034;-68
2023/01/05 09:33:35;;;;;;;0.73;0.73;;;;;;;-142.25;100.00;58004.16;5034333;28;20053;-68
2023/01/05 09:36:00;;;;;;;0.80;0.80;;;;;;;-142.25;100.00;58004.16;5034662;28;20079;-69
2023/01/05 09:38:26;;;;;;;1.38;0.95;;;;;;;-142.25;100.00;58004.16;5033600;28;20090;-69
2023/01/05 09:40:54;;;;;;;0.80;0.80;;;;;;;-142.25;100.00;58004.16;5034532;28;20051;-70
2023/01/05 09:43:26;;;;;;;0.80;0.80;;;;;;;-142.25;100.00;58004.16;5035910;28;20133;-67
2023/01/05 09:45:53;;;;;;;1.25;1.20;;;;;;;-142.25;100.00;58004.16;5034523;28;20064;-69
2023/01/05 09:48:20;;;;;;;1.30;1.30;;;;;;;-142.25;100.00;58004.16;5017966;28;20046;-68
2023/01/05 09:50:49;;;;;;;0.82;0.82;;;;;;;-142.25;100.00;58004.16;5032623;28;20079;-68
2023/01/05 09:53:22;;;;;;;0.90;0.90;;;;;;;-142.25;100.00;58004.16;5034185;28;20048;-70
2023/01/05 09:55:49;;;;;;;0.85;0.85;;;;;;;-142.25;100.00;58004.16;5035905;28;20041;-69
2023/01/05 09:58:23;;;;;;;0.80;0.80;;;;;;;-142.25;100.00;58004.16;5040048;28;20044;-70
2023/01/05 10:01:02;;;;;;;1.10;1.10;;;;;;;-142.25;100.00;58004.16;5033323;28;20036;-68
2023/01/05 10:03:30;;;;;;;2.78;2.67;;;;;;;-142.25;100.00;58004.16;5027845;28;20044;-68
2023/01/05 10:05:57;;;;;;;1.25;1.13;;;;;;;-142.25;100.00;58004.16;5032701;28;20037;-67
2023/01/05 10:08:37;;;;;;;1.00;1.00;;;;;;;-142.25;100.00;58004.16;5029355;28;20630;-66
2023/01/05 10:14:09;;;;;;;0.68;0.63;;;;;;;-142.25;100.00;58004.16;5032196;28;20126;-67
2023/01/05 10:16:35;;;;;;;9.10;8.68;;;;;;;-142.25;100.00;58004.16;5033360;28;20128;-67
2023/01/05 10:19:01;;;;;;;1.30;1.30;;;;;;;-142.25;100.00;58004.16;5034155;28;20110;-68
2023/01/05 10:21:42;;;;;;;0.90;0.90;;;;;;;-142.25;100.00;58004.16;5026618;28;20261;-67
2023/01/05 10:24:35;;;;;;;0.82;0.82;;;;;;;-142.25;100.00;58004.16;5038211;28;20045;-68
2023/01/05 10:27:10;;;;;;;3.33;3.15;;;;;;;-142.25;100.00;58004.16;5037607;28;20504;-67
2023/01/05 10:29:42;;;;;;;326.27;308.80;;;;;;;-142.25;100.00;58004.16;5037438;28;20179;-66
2023/01/05 10:32:33;;;;;;;628.33;575.47;;;;;;;-142.25;100.00;58004.16;5038484;28;20049;-68
2023/01/05 10:35:30;;;;;;;410.85;379.08;;;;;;;-142.25;100.00;58004.16;5038627;28;20623;-67
2023/01/05 10:38:21;;;;;;;8.88;8.38;;;;;;;-142.25;100.00;58004.16;5041160;28;20040;-67
2023/01/05 10:40:56;;;;;;;1.02;1.02;;;;;;;-142.25;100.00;58004.16;5037453;28;20091;-67
2023/01/05 10:43:55;;;;;;;0.80;0.80;;;;;;;-142.25;100.00;58004.16;5034115;28;20103;-69
2023/01/05 10:46:21;;;;;;;1.50;0.80;;;;;;;-142.25;100.00;58004.16;5035117;28;20037;-67
2023/01/05 10:48:47;;;;;;;3.92;0.80;;;;;;;-142.25;100.00;58004.16;5037105;28;20095;-69
2023/01/05 10:51:13;;;;;;;0.95;0.90;;;;;;;-142.25;100.00;58004.16;5039664;28;20053;-64
2023/01/05 10:53:42;;;;;;;4.07;3.83;;;;;;;-142.25;100.00;58004.16;5036254;28;20504;-72
2023/01/05 10:56:08;;;;;;;35.85;33.35;;;;;;;-142.25;100.00;58004.16;5040345;28;20048;-65
2023/01/05 10:58:37;;;;;;;0.77;0.77;;;;;;;-142.25;100.00;58004.16;5035505;28;20132;-71
2023/01/05 11:01:05;;;;;;;348.67;318.27;;;;;;;-142.25;100.00;58004.16;5037352;28;20038;-68
2023/01/05 11:03:38;;;;;;;603.15;567.25;;;;;;;-142.25;100.00;58004.16;5034647;28;20704;-71
2023/01/05 11:06:05;;;;;;;615.30;575.95;;;;;;;-142.25;100.00;58004.16;5032785;28;20037;-69
2023/01/05 11:08:32;;;;;;;624.95;584.17;;;;;;;-142.25;100.00;58004.16;5044555;28;20515;-68
2023/01/05 11:11:01;;;;;;;579.75;530.50;;;;;;;-142.25;100.00;58004.16;5037933;28;20546;-67
2023/01/05 11:13:34;;;;;;;618.07;561.00;;;;;;;-142.25;100.00;58004.16;5037499;28;20073;-70
2023/01/05 11:16:13;;;;;;;570.93;513.27;;;;;;;-142.25;100.00;58004.16;5036627;28;20053;-68
2023/01/05 11:18:57;;;;;;;538.27;483.60;;;;;;;-142.25;100.00;58004.16;5034530;28;20056;-68
2023/01/05 11:21:24;;;;;;;506.37;453.27;;;;;;;-142.25;100.00;58004.16;5036809;28;20272;-68
2023/01/05 11:23:53;;;;;;;537.00;482.97;;;;;;;-142.25;100.00;58004.16;5037394;28;20295;-68
2023/01/05 11:26:24;;;;;;;523.90;470.10;;;;;;;-142.25;100.00;58004.16;5042999;28;20351;-71
2023/01/05 11:28:57;;;;;;;551.40;495.80;;;;;;;-142.25;100.00;58004.16;5032688;28;20337;-70
2023/01/05 11:31:35;;;;;;;537.23;482.53;;;;;;;-142.25;100.00;58004.16;5032890;28;20049;-73
2023/01/05 11:34:12;;;;;;;513.90;460.10;;;;;;;-142.25;100.00;58004.16;5031565;28;20306;-70
2023/01/05 11:36:39;;;;;;;588.73;530.87;;;;;;;-142.25;100.00;58004.16;5034333;28;20280;-72
2023/01/05 11:39:05;;;;;;;563.70;506.50;;;;;;;-142.25;100.00;58004.16;5035407;28;20106;-70
2023/01/05 11:41:33;;;;;;;604.40;544.50;;;;;;;-142.25;100.00;58004.16;5040119;28;20075;-72
2023/01/05 11:44:02;;;;;;;599.40;538.77;;;;;;;-142.25;100.00;58004.16;5035845;28;20044;-71
2023/01/05 11:46:41;;;;;;;606.57;546.17;;;;;;;-142.25;100.00;58004.16;5037759;28;20072;-72
2023/01/05 11:49:07;;;;;;;565.40;507.57;;;;;;;-142.25;100.00;58004.16;5039422;28;20481;-70
2023/01/05 11:51:38;;;;;;;604.90;545.47;;;;;;;-142.25;100.00;58004.16;5038216;28;20908;-71
2023/01/05 11:54:23;;;;;;;617.10;557.13;;;;;;;-142.25;100.00;58004.16;5039594;28;20051;-71